Time;durP1;ratioP1;P1;durP2;ratioP2;P2;SDS_P1;SDS_P2;PMS_P1;PMS_P2;Temp;Humidity;BMP_temperature;BMP_pressure;BME280_temperature;BME280_humidity;BME280_pressure;Samples;Min_cycle;Max_cycle;Signal;HPM_P1;HPM_P2
2022/06/03 00:01:20;;;;;;;6.68;4.88;;;;;;;17.54;100.00;95287.44;5057599;28;20127;-67
2022/06/03 00:04:20;;;;;;;9.98;5.03;;;;;;;17.50;100.00;95290.84;5057833;28;20055;-65
2022/06/03 00:07:17;;;;;;;8.15;4.82;;;;;;;17.49;100.00;95294.56;5061275;28;20036;-68
2022/06/03 00:10:10;;;;;;;15.15;5.00;;;;;;;17.28;100.00;95299.78;5058470;28;20044;-67
2022/06/03 00:13:15;;;;;;;8.38;4.97;;;;;;;17.20;100.00;95297.69;5036493;28;20887;-67
2022/06/03 00:15:45;;;;;;;11.02;5.72;;;;;;;17.15;100.00;95289.78;5057086;28;20050;-66
2022/06/03 00:18:33;;;;;;;9.32;5.70;;;;;;;17.09;100.00;95290.84;5056168;28;20036;-66
2022/06/03 00:21:07;;;;;;;10.60;6.05;;;;;;;17.06;100.00;95291.34;5057739;28;20040;-66
2022/06/03 00:23:46;;;;;;;17.60;5.63;;;;;;;17.00;100.00;95287.91;5062247;28;20044;-66
2022/06/03 00:26:30;;;;;;;11.70;6.05;;;;;;;17.07;100.00;95292.91;5057261;28;20052;-65
2022/06/03 00:29:15;;;;;;;7.35;5.63;;;;;;;17.07;100.00;95295.53;5058392;28;20079;-65
2022/06/03 00:32:02;;;;;;;15.15;5.82;;;;;;;17.07;100.00;95287.66;5057268;28;20049;-66
2022/06/03 00:34:50;;;;;;;10.05;6.05;;;;;;;17.05;100.00;95295.00;5059086;28;20123;-66
2022/06/03 00:37:31;;;;;;;10.02;6.07;;;;;;;17.04;100.00;95293.44;5057654;28;20265;-65
2022/06/03 00:40:19;;;;;;;9.43;5.50;;;;;;;17.04;100.00;95296.06;5059857;28;20032;-65
2022/06/03 00:43:14;;;;;;;16.48;5.75;;;;;;;17.09;100.00;95296.09;5056668;28;20758;-65
2022/06/03 00:45:55;;;;;;;15.15;5.38;;;;;;;17.14;100.00;95303.97;5059778;28;20055;-66
2022/06/03 00:48:37;;;;;;;11.45;5.72;;;;;;;17.19;100.00;95306.63;5053680;28;20040;-66
2022/06/03 00:51:15;;;;;;;9.98;4.45;;;;;;;17.27;100.00;95298.22;5058441;28;20601;-66
2022/06/03 00:54:05;;;;;;;13.00;5.68;;;;;;;17.28;100.00;95293.75;5057437;28;20049;-66
2022/06/03 00:56:52;;;;;;;10.82;5.78;;;;;;;17.30;100.00;95297.69;5038382;28;20528;-65
2022/06/03 00:59:28;;;;;;;9.52;5.68;;;;;;;17.27;100.00;95292.97;5055570;28;20040;-66
2022/06/03 01:02:27;;;;;;;9.35;5.40;;;;;;;17.22;100.00;95295.56;5057618;28;20367;-65
2022/06/03 01:05:09;;;;;;;11.23;5.60;;;;;;;17.13;100.00;95287.41;5013714;28;20126;-65
2022/06/03 01:07:42;;;;;;;7.65;5.38;;;;;;;16.98;100.00;95290.00;5058450;28;20046;-66
2022/06/03 01:10:14;;;;;;;9.23;5.40;;;;;;;16.90;100.00;95285.25;5056089;28;20044;-66
2022/06/03 01:12:52;;;;;;;15.85;6.03;;;;;;;16.82;100.00;95286.53;5059353;28;20701;-72
2022/06/03 01:15:37;;;;;;;10.05;5.10;;;;;;;16.74;100.00;95285.16;5054709;28;20044;-71
2022/06/03 01:18:49;;;;;;;11.02;6.20;;;;;;;16.69;100.00;95281.72;5057810;28;20040;-69
2022/06/03 01:21:28;;;;;;;12.00;5.90;;;;;;;16.64;100.00;95279.88;4994813;28;20054;-69
2022/06/03 01:24:07;;;;;;;9.18;6.22;;;;;;;16.57;100.00;95290.63;5051352;28;20056;-67
2022/06/03 01:26:43;;;;;;;12.40;7.43;;;;;;;16.59;100.00;95285.91;5055761;28;20037;-67
2022/06/03 01:29:29;;;;;;;11.10;5.18;;;;;;;16.55;100.00;95276.97;5058902;28;20049;-67
2022/06/03 01:32:11;;;;;;;10.20;5.57;;;;;;;16.51;100.00;95275.91;5055099;28;20098;-68
2022/06/03 01:35:06;;;;;;;16.98;6.07;;;;;;;16.46;100.00;95262.72;5056460;28;20044;-68
2022/06/03 01:37:54;;;;;;;15.00;7.55;;;;;;;16.43;100.00;95268.50;5056674;28;20038;-68
2022/06/03 01:40:23;;;;;;;10.02;6.05;;;;;;;16.38;100.00;95271.88;5057353;28;20036;-68
2022/06/03 01:43:46;;;;;;;21.13;6.15;;;;;;;16.37;100.00;95269.53;5056443;28;20033;-68
2022/06/03 01:46:31;;;;;;;10.02;5.95;;;;;;;16.38;100.00;95271.09;5001915;28;20054;-68
2022/06/03 01:49:17;;;;;;;11.40;5.72;;;;;;;16.32;100.00;95277.38;4990131;28;20049;-67
2022/06/03 01:51:58;;;;;;;10.23;6.38;;;;;;;16.30;100.00;95274.22;5043496;28;20495;-68
2022/06/03 01:54:40;;;;;;;11.60;6.57;;;;;;;16.18;100.00;95288.34;5059196;28;20048;-68
2022/06/03 01:57:55;;;;;;;12.23;6.20;;;;;;;16.10;100.00;95280.94;5057255;28;20055;-68
2022/06/03 02:00:22;;;;;;;14.57;7.25;;;;;;;16.09;100.00;95278.56;5053533;28;20048;-68
2022/06/03 02:03:28;;;;;;;8.73;6.28;;;;;;;16.10;100.00;95286.22;5064948;28;20037;-67
2022/06/03 02:06:14;;;;;;;8.48;6.50;;;;;;;16.07;100.00;95273.56;5066300;28;20049;-66
2022/06/03 02:09:09;;;;;;;7.93;6.35;;;;;;;16.06;100.00;95274.59;5062017;28;20680;-67
2022/06/03 02:12:00;;;;;;;9.30;5.35;;;;;;;16.04;100.00;95276.69;5061678;28;20101;-67
2022/06/03 02:15:06;;;;;;;16.75;5.85;;;;;;;16.05;100.00;95275.66;5094004;28;20037;-68
2022/06/03 02:17:47;;;;;;;18.95;6.38;;;;;;;16.08;100.00;95277.78;5056617;28;20640;-68
2022/06/03 02:20:49;;;;;;;7.88;6.10;;;;;;;16.10;100.00;95275.69;5056206;28;20508;-67
2022/06/03 02:23:36;;;;;;;15.40;6.60;;;;;;;16.02;100.00;95284.03;5056603;28;20091;-68
2022/06/03 02:26:19;;;;;;;10.05;6.55;;;;;;;15.99;100.00;95284.53;5054854;28;20037;-67
2022/06/03 02:32:43;;;;;;;8.63;5.85;;;;;;;15.94;100.00;95295.81;5052899;28;20057;-68
2022/06/03 02:35:42;;;;;;;11.63;7.25;;;;;;;15.98;100.00;95288.22;5055599;28;20059;-68
2022/06/03 02:38:43;;;;;;;12.02;7.47;;;;;;;16.04;100.00;95293.28;5058942;28;20040;-68
2022/06/03 02:41:28;;;;;;;14.48;6.65;;;;;;;16.02;100.00;95297.97;5053449;28;20052;-68
2022/06/03 02:44:09;;;;;;;18.80;5.53;;;;;;;16.03;100.00;95293.53;5065430;28;20035;-69
2022/06/03 02:46:44;;;;;;;14.50;6.22;;;;;;;16.07;100.00;95299.06;5059055;28;20318;-67
2022/06/03 02:49:37;;;;;;;8.55;6.07;;;;;;;16.06;100.00;95303.50;5065176;28;20424;-68
2022/06/03 02:52:22;;;;;;;8.52;6.28;;;;;;;15.95;100.00;95299.25;5059682;28;20099;-68
2022/06/03 02:55:15;;;;;;;8.50;6.38;;;;;;;15.92;100.00;95305.00;5060143;28;20942;-68
2022/06/03 02:58:20;;;;;;;12.02;6.53;;;;;;;15.89;100.00;95303.66;5061872;28;20029;-68
2022/06/03 03:01:24;;;;;;;11.18;6.90;;;;;;;15.82;100.00;95296.00;5052230;28;20544;-68
2022/06/03 03:03:56;;;;;;;9.57;5.78;;;;;;;15.73;100.00;95296.69;5060483;28;21704;-68
2022/06/03 03:06:33;;;;;;;15.57;6.88;;;;;;;15.67;100.00;95299.28;5059383;28;20056;-68
2022/06/03 03:09:37;;;;;;;9.68;6.78;;;;;;;15.74;100.00;95304.38;5062028;28;20041;-68
2022/06/03 03:12:35;;;;;;;9.85;6.80;;;;;;;15.75;100.00;95300.66;5056481;28;20036;-68
2022/06/03 03:15:20;;;;;;;14.60;6.93;;;;;;;15.83;100.00;95297.59;5058746;28;20548;-67
2022/06/03 03:18:24;;;;;;;11.68;6.90;;;;;;;15.86;100.00;95302.34;5062059;28;20127;-68
2022/06/03 03:21:09;;;;;;;13.57;8.00;;;;;;;15.89;100.00;95303.66;5060184;28;20062;-68
2022/06/03 03:23:45;;;;;;;13.70;7.10;;;;;;;15.81;100.00;95304.94;5057396;28;20044;-68
2022/06/03 03:26:33;;;;;;;12.98;7.25;;;;;;;15.93;100.00;95303.97;5060226;28;21476;-68
2022/06/03 03:29:09;;;;;;;10.32;6.97;;;;;;;15.93;100.00;95323.13;5058557;28;20036;-68
2022/06/03 03:31:36;;;;;;;13.02;7.13;;;;;;;15.90;100.00;95317.59;5076897;28;20071;-68
2022/06/03 03:34:18;;;;;;;13.80;7.20;;;;;;;15.88;100.00;95324.94;5058348;28;20044;-68
2022/06/03 03:37:00;;;;;;;15.00;7.45;;;;;;;15.90;100.00;95328.91;5061147;28;20603;-69
2022/06/03 03:39:44;;;;;;;11.85;6.80;;;;;;;15.94;100.00;95337.06;5056177;28;20041;-69
2022/06/03 03:42:46;;;;;;;10.82;8.15;;;;;;;15.92;100.00;95326.00;5061639;28;20041;-68
2022/06/03 03:45:22;;;;;;;15.10;8.60;;;;;;;15.94;100.00;95334.44;5059003;28;20044;-68
2022/06/03 03:48:21;;;;;;;15.23;8.73;;;;;;;16.05;100.00;95336.09;5061044;28;20605;-68
2022/06/03 03:51:19;;;;;;;12.48;6.80;;;;;;;16.11;100.00;95335.06;5042172;28;20040;-69
2022/06/03 03:54:29;;;;;;;13.45;7.28;;;;;;;16.20;100.00;95338.81;5058422;28;20051;-68
2022/06/03 03:57:34;;;;;;;15.70;7.32;;;;;;;16.31;100.00;95339.66;5059911;28;20044;-69
2022/06/03 04:00:14;;;;;;;13.95;7.63;;;;;;;16.42;100.00;95351.03;5056763;28;20053;-68
2022/06/03 04:03:02;;;;;;;19.15;7.35;;;;;;;16.53;100.00;95344.78;5059993;28;20700;-68
2022/06/03 04:06:13;;;;;;;12.77;7.78;;;;;;;16.62;100.00;95340.63;5052223;28;20040;-68
2022/06/03 04:09:17;;;;;;;15.38;6.47;;;;;;;16.78;100.00;95345.94;5008385;28;20050;-68
2022/06/03 04:11:59;;;;;;;17.02;7.90;;;;;;;16.94;100.00;95349.44;5058574;28;20645;-68
2022/06/03 04:14:48;;;;;;;8.80;7.30;;;;;;;17.04;100.00;95335.56;5058546;28;20438;-69
2022/06/03 04:17:26;;;;;;;13.55;7.85;;;;;;;17.19;100.00;95332.94;5057464;28;20036;-68
2022/06/03 04:20:09;;;;;;;12.90;7.13;;;;;;;17.28;100.00;95328.75;5059590;28;20143;-68
2022/06/03 04:22:35;;;;;;;14.02;7.57;;;;;;;17.43;100.00;95332.44;5058863;28;20047;-68
2022/06/03 04:25:27;;;;;;;12.65;7.68;;;;;;;17.57;100.00;95344.06;5058220;28;20033;-68
2022/06/03 04:28:20;;;;;;;14.50;7.43;;;;;;;17.74;100.00;95349.88;5057330;28;20042;-68
2022/06/03 04:31:26;;;;;;;17.67;8.45;;;;;;;17.88;100.00;95365.97;5057846;28;20052;-68
2022/06/03 04:34:11;;;;;;;10.52;6.70;;;;;;;18.05;100.00;95370.19;5058558;28;20132;-69
2022/06/03 04:37:24;;;;;;;15.95;8.48;;;;;;;18.20;100.00;95372.00;5055410;28;20047;-69
2022/06/03 04:40:32;;;;;;;11.95;7.85;;;;;;;18.36;100.00;95365.66;5059805;28;20095;-68
2022/06/03 04:43:21;;;;;;;11.68;7.93;;;;;;;18.47;100.00;95364.56;5057885;28;20041;-68
2022/06/03 04:46:10;;;;;;;12.13;6.93;;;;;;;18.61;100.00;95361.38;5055681;28;20049;-68
2022/06/03 04:49:14;;;;;;;16.35;7.95;;;;;;;18.46;100.00;95376.19;5054480;28;20155;-67
2022/06/03 04:52:12;;;;;;;12.73;7.95;;;;;;;18.59;100.00;95371.44;5060842;28;20050;-68
2022/06/03 04:55:16;;;;;;;15.05;7.68;;;;;;;18.73;100.00;95375.06;5055708;28;20044;-68
2022/06/03 04:58:24;;;;;;;11.95;7.53;;;;;;;18.91;100.00;95382.44;5058938;28;20091;-68
2022/06/03 05:01:06;;;;;;;11.68;6.45;;;;;;;18.98;100.00;95370.78;5016663;28;20054;-68
2022/06/03 05:03:58;;;;;;;12.82;7.30;;;;;;;18.95;100.00;95376.63;5051281;28;20048;-68
2022/06/03 05:06:58;;;;;;;11.45;7.65;;;;;;;18.89;100.00;95379.28;5057551;28;20039;-68
2022/06/03 05:09:47;;;;;;;17.92;8.15;;;;;;;18.74;100.00;95381.91;5055453;28;20123;-68
2022/06/03 05:12:33;;;;;;;17.02;7.50;;;;;;;18.87;100.00;95386.66;5058060;28;20041;-68
2022/06/03 05:15:30;;;;;;;10.77;7.05;;;;;;;19.02;100.00;95385.03;5058081;28;20037;-75
2022/06/03 05:18:29;;;;;;;13.98;7.32;;;;;;;19.18;100.00;95391.03;5077160;28;20048;-75
2022/06/03 05:21:24;;;;;;;8.50;6.35;;;;;;;19.23;100.00;95399.72;5056752;28;20059;-69
2022/06/03 05:24:00;;;;;;;13.63;7.07;;;;;;;19.34;100.00;95420.78;5052970;28;20044;-66
2022/06/03 05:26:28;;;;;;;13.73;7.35;;;;;;;19.50;100.00;95409.09;5053897;28;20966;-69
2022/06/03 05:29:29;;;;;;;13.75;7.57;;;;;;;19.74;100.00;95408.47;5057090;28;20048;-68
2022/06/03 05:32:17;;;;;;;16.42;10.00;;;;;;;19.90;100.00;95412.56;5058929;28;20437;-68
2022/06/03 05:35:16;;;;;;;12.07;7.50;;;;;;;20.05;100.00;95409.78;5065382;28;20579;-68
2022/06/03 05:37:59;;;;;;;15.50;8.68;;;;;;;20.20;100.00;95411.53;5066205;28;20128;-68
2022/06/03 05:41:00;;;;;;;12.30;7.88;;;;;;;20.37;100.00;95400.53;5096350;28;20335;-68
2022/06/03 05:44:15;;;;;;;12.68;7.93;;;;;;;20.53;100.00;95397.75;5082642;28;20047;-69
2022/06/03 05:47:02;;;;;;;12.23;7.65;;;;;;;20.50;100.00;95400.97;5076577;28;20051;-68
2022/06/03 05:49:47;;;;;;;12.23;6.63;;;;;;;20.59;99.36;95407.22;5080133;28;20046;-68
2022/06/03 05:52:38;;;;;;;12.55;7.00;;;;;;;20.61;99.03;95402.47;5062962;28;20045;-69
2022/06/03 05:55:47;;;;;;;13.82;5.88;;;;;;;20.57;99.41;95407.50;5061664;28;20045;-68
2022/06/03 05:58:14;;;;;;;8.95;6.68;;;;;;;20.66;100.00;95401.63;5058998;28;20044;-68
2022/06/03 06:01:27;;;;;;;14.50;6.80;;;;;;;20.76;99.27;95402.31;5066325;28;20048;-68
2022/06/03 06:04:14;;;;;;;10.75;6.65;;;;;;;20.90;98.79;95401.63;5043774;28;20098;-69
2022/06/03 06:07:11;;;;;;;11.13;6.15;;;;;;;21.10;98.50;95382.84;5059527;28;20037;-68
2022/06/03 06:09:44;;;;;;;11.20;6.57;;;;;;;21.19;97.96;95386.47;5060841;28;20056;-69
2022/06/03 06:12:45;;;;;;;7.90;4.95;;;;;;;21.36;96.38;95377.22;5058808;28;20059;-69
2022/06/03 06:15:50;;;;;;;15.25;6.35;;;;;;;21.45;96.53;95375.53;5067273;28;20052;-68
2022/06/03 06:18:42;;;;;;;10.00;5.90;;;;;;;21.44;95.69;95379.22;5047876;28;20121;-68
2022/06/03 06:21:39;;;;;;;11.95;5.88;;;;;;;21.55;94.30;95375.41;5064998;28;20636;-68
2022/06/03 06:24:43;;;;;;;12.90;5.93;;;;;;;21.55;95.11;95372.75;5066801;28;20044;-68
2022/06/03 06:27:33;;;;;;;13.88;6.80;;;;;;;21.74;95.53;95364.00;5064306;28;20039;-67
2022/06/03 06:30:18;;;;;;;9.20;5.70;;;;;;;21.96;94.77;95369.47;5065692;28;20147;-67
2022/06/03 06:32:50;;;;;;;9.48;6.07;;;;;;;22.09;93.49;95359.19;5059445;28;20123;-67
2022/06/03 06:35:55;;;;;;;7.53;5.05;;;;;;;22.24;94.15;95358.94;5059966;28;20114;-67
2022/06/03 06:38:46;;;;;;;7.18;5.22;;;;;;;22.31;92.30;95361.25;5063522;28;20048;-67
2022/06/03 06:41:19;;;;;;;15.23;5.35;;;;;;;22.32;92.45;95355.63;5057873;28;20127;-67
2022/06/03 06:43:50;;;;;;;11.82;6.10;;;;;;;22.39;92.52;95362.44;5060150;28;20078;-67
2022/06/03 06:46:43;;;;;;;14.75;5.20;;;;;;;22.48;91.93;95369.41;5062820;28;20136;-67
2022/06/03 06:49:16;;;;;;;11.45;5.13;;;;;;;22.62;92.28;95364.13;5065502;28;20536;-67
2022/06/03 06:52:19;;;;;;;7.25;5.50;;;;;;;22.76;90.88;95371.31;5059551;28;20052;-67
2022/06/03 06:54:58;;;;;;;11.02;6.07;;;;;;;22.57;91.90;95366.88;5063138;28;20045;-72
2022/06/03 06:57:48;;;;;;;11.73;6.07;;;;;;;22.76;92.94;95360.69;5062082;28;20041;-69
2022/06/03 07:00:18;;;;;;;7.93;4.90;;;;;;;22.97;90.16;95361.06;5059502;28;20053;-68
2022/06/03 07:03:04;;;;;;;10.80;5.72;;;;;;;23.18;90.28;95369.44;5062482;28;20101;-69
2022/06/03 07:05:55;;;;;;;14.40;5.82;;;;;;;23.28;88.63;95369.22;5062273;28;20040;-68
2022/06/03 07:08:26;;;;;;;12.25;5.03;;;;;;;23.47;88.98;95369.88;5057669;28;20048;-69
2022/06/03 07:11:25;;;;;;;13.00;5.57;;;;;;;23.75;86.75;95361.81;5060116;28;20049;-69
2022/06/03 07:14:11;;;;;;;7.47;4.85;;;;;;;24.08;85.56;95369.56;5059008;28;20050;-69
2022/06/03 07:20:05;;;;;;;6.63;4.78;;;;;;;24.50;83.45;95358.69;5057266;28;20044;-68
2022/06/03 07:23:01;;;;;;;8.85;5.53;;;;;;;24.65;82.96;95370.81;5060696;28;20044;-69
2022/06/03 07:25:35;;;;;;;10.10;4.80;;;;;;;24.82;82.45;95354.91;5076147;28;20740;-68
2022/06/03 07:28:27;;;;;;;8.45;4.72;;;;;;;25.07;82.00;95361.41;5055680;28;20041;-68
2022/06/03 07:31:13;;;;;;;10.32;4.50;;;;;;;25.26;79.07;95363.03;5059473;28;20051;-69
2022/06/03 07:34:01;;;;;;;10.02;4.93;;;;;;;25.41;77.81;95364.44;5049975;28;20045;-69
2022/06/03 07:36:36;;;;;;;11.18;4.80;;;;;;;25.16;79.12;95364.09;5054328;28;20041;-68
2022/06/03 07:39:28;;;;;;;12.20;5.88;;;;;;;25.27;77.69;95370.72;5049231;28;20035;-67
2022/06/03 07:42:13;;;;;;;9.80;5.38;;;;;;;25.49;76.08;95374.34;5052223;28;20796;-66
2022/06/03 07:44:59;;;;;;;14.30;4.97;;;;;;;25.48;75.33;95376.25;5052739;28;20717;-66
2022/06/03 07:47:28;;;;;;;15.05;5.43;;;;;;;25.65;74.59;95377.34;5056179;28;20040;-65
2022/06/03 07:49:59;;;;;;;8.30;4.63;;;;;;;25.94;72.13;95376.72;5052981;28;20134;-66
2022/06/03 07:52:46;;;;;;;6.78;4.70;;;;;;;26.09;72.02;95362.91;5059112;28;20506;-66
2022/06/03 07:55:25;;;;;;;7.72;4.65;;;;;;;26.38;70.39;95373.97;5055073;28;20049;-66
2022/06/03 07:57:58;;;;;;;6.88;4.28;;;;;;;26.47;68.84;95380.88;5059650;28;20043;-66
2022/06/03 08:00:26;;;;;;;12.30;4.60;;;;;;;26.68;68.29;95388.97;5070643;28;20068;-66
2022/06/03 08:03:12;;;;;;;7.07;4.88;;;;;;;26.74;67.64;95386.94;5059713;28;20043;-66
2022/06/03 08:05:39;;;;;;;7.50;4.40;;;;;;;26.82;66.56;95393.34;5053410;28;20049;-66
2022/06/03 08:11:10;;;;;;;10.70;5.00;;;;;;;27.17;66.29;95393.97;5055669;28;20040;-66
2022/06/03 08:13:40;;;;;;;6.22;4.35;;;;;;;27.60;64.27;95395.63;5058529;28;20050;-66
2022/06/03 08:16:19;;;;;;;8.13;5.20;;;;;;;27.77;63.36;95396.59;5072406;28;20040;-66
2022/06/03 08:18:46;;;;;;;10.35;4.38;;;;;;;27.99;62.78;95385.53;5056750;28;20044;-66
2022/06/03 08:21:21;;;;;;;7.20;4.40;;;;;;;28.05;61.38;95399.50;5056700;28;20051;-66
2022/06/03 08:23:49;;;;;;;7.82;4.43;;;;;;;27.74;61.77;95394.56;5076363;28;20543;-66
2022/06/03 08:26:20;;;;;;;10.13;4.75;;;;;;;27.67;61.18;95394.28;5055615;28;20131;-66
2022/06/03 08:29:08;;;;;;;5.35;3.90;;;;;;;27.75;60.36;95390.75;5055869;28;20041;-66
2022/06/03 08:31:36;;;;;;;7.70;4.82;;;;;;;28.02;59.80;95395.59;5057014;28;20044;-66
2022/06/03 08:34:07;;;;;;;9.30;4.40;;;;;;;28.15;58.95;95392.97;5058864;28;20045;-66
2022/06/03 08:36:37;;;;;;;8.80;3.45;;;;;;;28.19;57.86;95393.88;5056876;28;20052;-66
2022/06/03 08:39:16;;;;;;;5.60;3.58;;;;;;;28.31;57.60;95390.47;5057448;28;20060;-66
2022/06/03 08:42:01;;;;;;;6.85;4.20;;;;;;;28.34;55.91;95395.94;5056621;28;20517;-66
2022/06/03 08:44:32;;;;;;;9.73;4.45;;;;;;;28.44;57.59;95388.59;5059713;28;20048;-66
2022/06/03 08:47:25;;;;;;;8.20;4.65;;;;;;;28.52;57.42;95390.38;5059128;28;20044;-66
2022/06/03 08:50:08;;;;;;;5.97;4.13;;;;;;;28.49;54.88;95396.41;5059415;28;20040;-66
2022/06/03 08:52:53;;;;;;;4.65;3.58;;;;;;;28.88;55.14;95402.28;5058808;28;20731;-66
2022/06/03 08:55:43;;;;;;;8.52;4.30;;;;;;;29.06;51.05;95398.25;5061069;28;20052;-66
2022/06/03 08:58:27;;;;;;;4.95;3.38;;;;;;;28.68;52.23;95402.03;5060228;28;20044;-66
2022/06/03 09:01:02;;;;;;;4.78;3.67;;;;;;;28.98;52.42;95401.84;5059872;28;20044;-66
2022/06/03 09:03:38;;;;;;;5.75;3.60;;;;;;;28.93;52.19;95378.72;5059239;28;20058;-66
2022/06/03 09:06:16;;;;;;;6.47;3.97;;;;;;;29.16;51.15;95389.81;5061162;28;20517;-66
2022/06/03 09:08:55;;;;;;;7.93;3.75;;;;;;;29.19;47.91;95395.63;5057860;28;20046;-66
2022/06/03 09:11:46;;;;;;;6.88;3.88;;;;;;;29.34;47.63;95393.03;5059949;28;20058;-67
2022/06/03 09:14:21;;;;;;;4.03;3.20;;;;;;;29.12;45.76;95402.31;5072367;28;20051;-66
2022/06/03 09:16:51;;;;;;;6.75;4.00;;;;;;;28.99;47.10;95403.41;5056179;28;20128;-66
2022/06/03 09:19:28;;;;;;;6.57;3.95;;;;;;;29.21;47.82;95393.38;5056750;28;20044;-66
2022/06/03 09:21:59;;;;;;;6.82;3.67;;;;;;;29.33;46.73;95396.03;5056096;28;20048;-66
2022/06/03 09:24:32;;;;;;;6.75;3.17;;;;;;;29.57;45.11;95397.13;5052604;28;20044;-66
2022/06/03 09:27:02;;;;;;;9.88;3.00;;;;;;;29.95;43.83;95404.78;5055666;28;20052;-66
2022/06/03 09:29:30;;;;;;;4.25;3.30;;;;;;;30.20;41.80;95405.44;5056066;28;20048;-66
2022/06/03 09:32:05;;;;;;;10.30;3.22;;;;;;;30.34;39.36;95397.00;5054078;28;20044;-66
2022/06/03 09:34:41;;;;;;;7.57;3.00;;;;;;;30.40;40.20;95408.31;5054729;28;20045;-66
2022/06/03 09:37:14;;;;;;;6.03;3.67;;;;;;;29.92;47.87;95400.84;5051152;28;20040;-66
2022/06/03 09:39:44;;;;;;;7.43;3.78;;;;;;;29.53;47.82;95388.97;5056152;28;20041;-66
2022/06/03 09:42:13;;;;;;;7.97;4.18;;;;;;;29.26;44.64;95395.81;5055813;28;20045;-66
2022/06/03 09:44:41;;;;;;;5.15;3.30;;;;;;;29.44;41.89;95397.16;5058334;28;20045;-66
2022/06/03 09:47:09;;;;;;;10.63;4.53;;;;;;;29.43;46.58;95384.09;5057721;28;20048;-66
2022/06/03 09:49:37;;;;;;;6.68;3.90;;;;;;;29.43;46.96;95395.59;5060382;28;20051;-66
2022/06/03 09:52:10;;;;;;;6.47;3.95;;;;;;;29.45;46.93;95393.34;5051919;28;20612;-66
2022/06/03 09:54:39;;;;;;;5.80;3.73;;;;;;;29.43;44.73;95398.28;5058673;28;20048;-66
2022/06/03 09:57:07;;;;;;;9.07;4.07;;;;;;;29.42;45.20;95393.25;5058413;28;20471;-66
2022/06/03 09:59:36;;;;;;;4.80;3.33;;;;;;;29.53;43.42;95389.75;5058905;28;20041;-68
2022/06/03 10:02:07;;;;;;;4.78;3.22;;;;;;;29.46;44.59;95389.56;5056434;28;20029;-67
2022/06/03 10:04:35;;;;;;;9.82;3.42;;;;;;;29.46;43.66;95386.88;5059119;28;20045;-67
2022/06/03 10:07:02;;;;;;;4.88;3.22;;;;;;;29.57;41.97;95381.00;5061096;28;20911;-67
2022/06/03 10:18:21;;;;;;;4.57;3.55;;;;;;;29.70;41.98;95390.63;5055540;28;20055;-68
2022/06/03 10:20:51;;;;;;;3.47;2.83;;;;;;;29.65;42.42;95396.22;5059785;28;20059;-68
2022/06/03 10:23:24;;;;;;;7.70;4.35;;;;;;;29.40;43.41;95395.50;5058700;28;20048;-67
2022/06/03 10:26:27;;;;;;;9.05;3.72;;;;;;;29.24;44.33;95382.75;5059522;28;20055;-67
2022/06/03 10:28:56;;;;;;;4.50;3.10;;;;;;;29.31;42.75;95392.91;5055007;28;20037;-68
2022/06/03 10:31:46;;;;;;;4.32;3.40;;;;;;;29.19;42.34;95390.25;5058943;28;20525;-74
2022/06/03 10:34:17;;;;;;;3.78;3.03;;;;;;;29.25;40.74;95394.28;5056050;28;20433;-73
2022/06/03 10:36:46;;;;;;;4.80;2.55;;;;;;;29.33;40.49;95401.41;5059092;28;20051;-72
2022/06/03 10:39:16;;;;;;;3.33;2.58;;;;;;;29.64;40.92;95394.63;5053736;28;20045;-65
2022/06/03 10:41:53;;;;;;;5.80;2.83;;;;;;;29.81;39.71;95378.31;5053156;28;20032;-67
2022/06/03 10:44:23;;;;;;;5.63;3.40;;;;;;;30.04;37.91;95391.22;5057120;28;21268;-67
2022/06/03 10:47:16;;;;;;;6.43;2.80;;;;;;;30.56;37.60;95390.28;5056332;28;20045;-67
2022/06/03 10:49:58;;;;;;;6.30;3.28;;;;;;;31.25;38.41;95381.94;5057355;28;20576;-68
2022/06/03 11:01:43;;;;;;;4.90;2.88;;;;;;;32.26;34.37;95378.63;5051679;28;20135;-66
2022/06/03 11:04:24;;;;;;;6.45;2.90;;;;;;;32.09;34.77;95369.88;5055728;28;20533;-65
2022/06/03 11:06:51;;;;;;;12.10;3.55;;;;;;;32.36;34.96;95378.06;5055404;28;20044;-65
2022/06/03 11:09:19;;;;;;;3.78;2.70;;;;;;;33.00;32.92;95378.34;5059391;28;20045;-65
2022/06/03 11:11:57;;;;;;;6.38;3.47;;;;;;;33.21;33.30;95377.91;5057515;28;20804;-65
2022/06/03 11:14:30;;;;;;;3.72;2.50;;;;;;;33.52;33.79;95371.38;5058046;28;20040;-65
2022/06/03 11:17:01;;;;;;;3.38;2.67;;;;;;;33.42;31.95;95368.53;5055407;28;20048;-65
2022/06/03 11:19:46;;;;;;;6.88;3.50;;;;;;;32.60;32.40;95386.97;5053969;28;20043;-66
2022/06/03 11:22:18;;;;;;;6.93;4.05;;;;;;;32.03;35.02;95368.53;5053540;28;20070;-66
2022/06/03 11:25:11;;;;;;;5.90;4.13;;;;;;;32.25;33.55;95377.06;5059136;28;20041;-66
2022/06/03 11:27:55;;;;;;;5.75;3.55;;;;;;;31.85;33.61;95367.44;5056527;28;20040;-63
2022/06/03 11:30:43;;;;;;;4.78;2.60;;;;;;;31.68;34.41;95355.97;5064889;28;20597;-66
2022/06/03 11:33:16;;;;;;;3.42;2.80;;;;;;;31.78;35.03;95352.72;5059474;28;20056;-65
2022/06/03 11:35:55;;;;;;;6.32;2.95;;;;;;;31.65;33.98;95356.66;5060714;28;20067;-65
2022/06/03 11:38:49;;;;;;;3.40;2.80;;;;;;;31.82;34.10;95342.78;5058874;28;20798;-65
2022/06/03 11:41:18;;;;;;;;;;;;;;;32.12;32.60;95347.56;5062952;28;20136;-66
2022/06/03 11:43:51;;;;;;;4.00;2.70;;;;;;;32.51;33.07;95358.28;5059251;28;19924;-65
2022/06/03 11:46:37;;;;;;;3.83;2.28;;;;;;;32.68;31.53;95345.47;5059840;28;20049;-66
2022/06/03 11:49:06;;;;;;;7.13;3.80;;;;;;;32.94;31.93;95342.03;5056603;28;20177;-65
2022/06/03 11:51:34;;;;;;;4.55;2.35;;;;;;;32.98;31.58;95342.84;5061422;28;20084;-65
2022/06/03 11:54:01;;;;;;;4.97;3.08;;;;;;;32.86;30.93;95341.16;5058018;28;20047;-66
2022/06/03 11:56:31;;;;;;;6.47;3.17;;;;;;;32.83;31.16;95331.09;5055939;28;20044;-65
2022/06/03 11:59:35;;;;;;;9.00;3.40;;;;;;;33.41;31.84;95329.22;5057667;28;20043;-66
2022/06/03 12:02:14;;;;;;;7.97;3.10;;;;;;;33.58;30.26;95328.63;5057496;28;20048;-65
2022/06/03 12:05:02;;;;;;;4.60;2.92;;;;;;;34.31;29.86;95333.72;5056690;28;20560;-66
2022/06/03 12:08:05;;;;;;;6.10;2.80;;;;;;;34.65;29.10;95333.63;5059940;28;20048;-65
2022/06/03 12:10:50;;;;;;;4.22;2.50;;;;;;;35.51;27.59;95342.34;5045149;28;20053;-65
2022/06/03 12:13:30;;;;;;;3.80;2.75;;;;;;;35.74;27.39;95344.00;5059490;28;20098;-67
2022/06/03 12:15:57;;;;;;;4.10;2.67;;;;;;;35.36;27.71;95346.13;5055310;28;20044;-66
2022/06/03 12:18:39;;;;;;;4.07;2.50;;;;;;;35.33;28.30;95352.28;5061212;28;20415;-66
2022/06/03 12:21:12;;;;;;;3.42;2.22;;;;;;;35.14;27.71;95351.38;5058599;28;20033;-67
2022/06/03 12:23:38;;;;;;;3.58;3.08;;;;;;;34.75;28.00;95351.88;5061810;28;20032;-65
2022/06/03 12:26:17;;;;;;;4.82;3.15;;;;;;;34.89;28.20;95356.63;5060982;28;20036;-66
2022/06/03 12:28:47;;;;;;;3.33;2.83;;;;;;;34.66;29.80;95354.91;5071450;28;20047;-81
2022/06/03 12:31:17;;;;;;;7.07;3.97;;;;;;;34.93;30.89;95362.84;5057568;28;20049;-66
2022/06/03 12:33:44;;;;;;;3.60;2.78;;;;;;;34.79;30.01;95358.13;5064135;28;20537;-77
2022/06/03 12:36:43;;;;;;;6.38;2.85;;;;;;;34.28;29.56;95367.66;5062205;28;20048;-75
2022/06/03 12:39:30;;;;;;;10.32;4.05;;;;;;;33.89;32.35;95356.44;5059674;28;20567;-68
2022/06/03 12:42:02;;;;;;;6.18;3.10;;;;;;;33.38;32.84;95348.84;5059899;28;20063;-69
2022/06/03 12:45:14;;;;;;;3.85;3.08;;;;;;;33.94;31.54;95345.28;5059087;28;20046;-69
2022/06/03 12:47:47;;;;;;;4.65;3.10;;;;;;;33.83;32.74;95341.69;5020445;28;20060;-73
2022/06/03 12:50:23;;;;;;;11.68;3.67;;;;;;;34.12;31.41;95336.59;5021136;28;20124;-74
2022/06/03 12:53:16;;;;;;;5.15;2.72;;;;;;;33.86;30.88;95330.16;5046565;28;20048;-74
2022/06/03 12:55:44;;;;;;;4.25;3.28;;;;;;;34.42;29.44;95318.38;5061448;28;20071;-73
2022/06/03 12:58:37;;;;;;;6.13;3.00;;;;;;;34.67;30.61;95328.63;5058737;28;20135;-72
2022/06/03 13:01:06;;;;;;;4.55;3.25;;;;;;;35.54;29.43;95336.16;5060991;28;20610;-73
2022/06/03 13:03:33;;;;;;;4.03;3.20;;;;;;;35.16;28.97;95330.13;5055701;28;20552;-73
2022/06/03 13:06:03;;;;;;;8.25;3.40;;;;;;;34.28;29.54;95329.81;5060102;28;20083;-73
2022/06/03 13:09:34;;;;;;;3.58;2.50;;;;;;;33.71;29.58;95319.19;5069659;28;20047;-73
2022/06/03 13:11:26;;;;;;;5.70;2.95;;;;;;;33.33;30.53;95329.13;5061125;28;20044;-73